sensor_id;sensor_type;location;lat;lon;timestamp;pressure;altitude;pressure_sealevel;temperature
73734;BMP280;62039;50.000;9.064;2023-04-24T00:00:29;99190.19;;;12.90
73734;BMP280;62039;50.000;9.064;2023-04-24T00:02:56;99199.25;;;12.88
73734;BMP280;62039;50.000;9.064;2023-04-24T00:05:24;99195.25;;;12.85
73734;BMP280;62039;50.000;9.064;2023-04-24T00:07:51;99199.88;;;12.83
73734;BMP280;62039;50.000;9.064;2023-04-24T00:10:18;99190.41;;;12.82
73734;BMP280;62039;50.000;9.064;2023-04-24T00:12:45;99182.75;;;12.81
73734;BMP280;62039;50.000;9.064;2023-04-24T00:15:14;99174.28;;;12.79
73734;BMP280;62039;50.000;9.064;2023-04-24T00:17:41;99178.31;;;12.75
73734;BMP280;62039;50.000;9.064;2023-04-24T00:20:09;99174.69;;;12.69
73734;BMP280;62039;50.000;9.064;2023-04-24T00:22:36;99175.09;;;12.66
73734;BMP280;62039;50.000;9.064;2023-04-24T00:25:04;99167.44;;;12.65
73734;BMP280;62039;50.000;9.064;2023-04-24T00:27:31;99164.00;;;12.64
73734;BMP280;62039;50.000;9.064;2023-04-24T00:29:58;99167.81;;;12.62
73734;BMP280;62039;50.000;9.064;2023-04-24T00:32:28;99164.19;;;12.63
73734;BMP280;62039;50.000;9.064;2023-04-24T00:34:55;99163.38;;;12.62
73734;BMP280;62039;50.000;9.064;2023-04-24T00:37:22;99157.16;;;12.63
73734;BMP280;62039;50.000;9.064;2023-04-24T00:39:48;99155.53;;;12.62
73734;BMP280;62039;50.000;9.064;2023-04-24T00:42:15;99151.28;;;12.61
73734;BMP280;62039;50.000;9.064;2023-04-24T00:44:43;99156.75;;;12.60
73734;BMP280;62039;50.000;9.064;2023-04-24T00:47:10;99148.09;;;12.59
73734;BMP280;62039;50.000;9.064;2023-04-24T00:49:40;99146.06;;;12.54
73734;BMP280;62039;50.000;9.064;2023-04-24T00:52:07;99144.47;;;12.53
73734;BMP280;62039;50.000;9.064;2023-04-24T00:54:34;99144.66;;;12.52
73734;BMP280;62039;50.000;9.064;2023-04-24T00:57:02;99142.84;;;12.52
73734;BMP280;62039;50.000;9.064;2023-04-24T00:59:29;99130.75;;;12.51
73734;BMP280;62039;50.000;9.064;2023-04-24T01:01:56;99134.38;;;12.50
73734;BMP280;62039;50.000;9.064;2023-04-24T01:04:24;99133.78;;;12.48
73734;BMP280;62039;50.000;9.064;2023-04-24T01:06:54;99134.78;;;12.47
73734;BMP280;62039;50.000;9.064;2023-04-24T01:09:23;99137.63;;;12.46
73734;BMP280;62039;50.000;9.064;2023-04-24T01:11:50;99139.22;;;12.47
73734;BMP280;62039;50.000;9.064;2023-04-24T01:14:17;99137.19;;;12.49
73734;BMP280;62039;50.000;9.064;2023-04-24T01:16:44;99141.63;;;12.48
73734;BMP280;62039;50.000;9.064;2023-04-24T01:19:11;99150.28;;;12.49
73734;BMP280;62039;50.000;9.064;2023-04-24T01:21:38;99151.91;;;12.50
73734;BMP280;62039;50.000;9.064;2023-04-24T01:24:09;99150.28;;;12.49
73734;BMP280;62039;50.000;9.064;2023-04-24T01:26:36;99144.47;;;12.47
73734;BMP280;62039;50.000;9.064;2023-04-24T01:29:03;99144.84;;;12.44
73734;BMP280;62039;50.000;9.064;2023-04-24T01:31:30;99146.03;;;12.41
73734;BMP280;62039;50.000;9.064;2023-04-24T01:33:57;99143.66;;;12.40
73734;BMP280;62039;50.000;9.064;2023-04-24T01:36:25;99140.41;;;12.38
73734;BMP280;62039;50.000;9.064;2023-04-24T01:38:53;99146.66;;;12.37
73734;BMP280;62039;50.000;9.064;2023-04-24T01:41:23;99147.66;;;12.36
73734;BMP280;62039;50.000;9.064;2023-04-24T01:43:51;99139.22;;;12.34
73734;BMP280;62039;50.000;9.064;2023-04-24T01:46:18;99140.22;;;12.33
73734;BMP280;62039;50.000;9.064;2023-04-24T01:48:45;99132.38;;;12.33
73734;BMP280;62039;50.000;9.064;2023-04-24T01:51:12;99135.16;;;12.31
73734;BMP280;62039;50.000;9.064;2023-04-24T01:53:39;99134.34;;;12.31
73734;BMP280;62039;50.000;9.064;2023-04-24T01:56:06;99137.97;;;12.30
73734;BMP280;62039;50.000;9.064;2023-04-24T01:58:36;99128.28;;;12.30
73734;BMP280;62039;50.000;9.064;2023-04-24T02:01:03;99128.28;;;12.30
73734;BMP280;62039;50.000;9.064;2023-04-24T02:03:30;99132.72;;;12.30
73734;BMP280;62039;50.000;9.064;2023-04-24T02:05:57;99125.06;;;12.28
73734;BMP280;62039;50.000;9.064;2023-04-24T02:08:24;99137.97;;;12.30
73734;BMP280;62039;50.000;9.064;2023-04-24T02:10:51;99132.91;;;12.28
73734;BMP280;62039;50.000;9.064;2023-04-24T02:13:18;99136.34;;;12.29
73734;BMP280;62039;50.000;9.064;2023-04-24T02:15:47;99139.97;;;12.28
73734;BMP280;62039;50.000;9.064;2023-04-24T02:18:14;99133.13;;;12.27
73734;BMP280;62039;50.000;9.064;2023-04-24T02:20:41;99126.06;;;12.27
73734;BMP280;62039;50.000;9.064;2023-04-24T02:23:08;99115.81;;;12.26
73734;BMP280;62039;50.000;9.064;2023-04-24T02:25:35;99120.25;;;12.25
73734;BMP280;62039;50.000;9.064;2023-04-24T02:28:02;99117.81;;;12.24
73734;BMP280;62039;50.000;9.064;2023-04-24T02:30:29;99115.38;;;12.22
73734;BMP280;62039;50.000;9.064;2023-04-24T02:32:59;99116.19;;;12.23
73734;BMP280;62039;50.000;9.064;2023-04-24T02:35:26;99119.81;;;12.22
73734;BMP280;62039;50.000;9.064;2023-04-24T02:37:53;99111.97;;;12.22
73734;BMP280;62039;50.000;9.064;2023-04-24T02:40:20;99113.78;;;12.21
73734;BMP280;62039;50.000;9.064;2023-04-24T02:42:46;99117.19;;;12.22
73734;BMP280;62039;50.000;9.064;2023-04-24T02:45:14;99112.97;;;12.21
73734;BMP280;62039;50.000;9.064;2023-04-24T02:47:40;99109.75;;;12.18
73734;BMP280;62039;50.000;9.064;2023-04-24T02:50:10;99117.59;;;12.18
73734;BMP280;62039;50.000;9.064;2023-04-24T02:52:37;99121.22;;;12.17
73734;BMP280;62039;50.000;9.064;2023-04-24T02:55:05;99114.19;;;12.18
73734;BMP280;62039;50.000;9.064;2023-04-24T02:57:32;99122.22;;;12.16
73734;BMP280;62039;50.000;9.064;2023-04-24T02:59:59;99115.19;;;12.17
73734;BMP280;62039;50.000;9.064;2023-04-24T03:02:26;99112.38;;;12.18
73734;BMP280;62039;50.000;9.064;2023-04-24T03:04:53;99120.22;;;12.18
73734;BMP280;62039;50.000;9.064;2023-04-24T03:07:22;99119.81;;;12.22
73734;BMP280;62039;50.000;9.064;2023-04-24T03:09:49;99119.00;;;12.21
73734;BMP280;62039;50.000;9.064;2023-04-24T03:12:16;99126.66;;;12.23
73734;BMP280;62039;50.000;9.064;2023-04-24T03:14:43;99124.03;;;12.23
73734;BMP280;62039;50.000;9.064;2023-04-24T03:17:10;99122.06;;;12.25
73734;BMP280;62039;50.000;9.064;2023-04-24T03:19:37;99127.28;;;12.25
73734;BMP280;62039;50.000;9.064;2023-04-24T03:22:04;99122.66;;;12.27
73734;BMP280;62039;50.000;9.064;2023-04-24T03:24:33;99126.88;;;12.28
73734;BMP280;62039;50.000;9.064;2023-04-24T03:27:00;99130.53;;;12.27
73734;BMP280;62039;50.000;9.064;2023-04-24T03:29:27;99144.38;;;12.27
73734;BMP280;62039;50.000;9.064;2023-04-24T03:31:56;99133.13;;;12.27
73734;BMP280;62039;50.000;9.064;2023-04-24T03:34:23;99143.59;;;12.27
73734;BMP280;62039;50.000;9.064;2023-04-24T03:36:50;99149.84;;;12.26
73734;BMP280;62039;50.000;9.064;2023-04-24T03:39:16;99148.41;;;12.23
73734;BMP280;62039;50.000;9.064;2023-04-24T03:41:46;99143.38;;;12.22
73734;BMP280;62039;50.000;9.064;2023-04-24T03:44:13;99153.66;;;12.16
73734;BMP280;62039;50.000;9.064;2023-04-24T03:46:40;99158.47;;;12.13
73734;BMP280;62039;50.000;9.064;2023-04-24T03:49:07;99166.53;;;12.11
73734;BMP280;62039;50.000;9.064;2023-04-24T03:51:34;99161.66;;;12.08
73734;BMP280;62039;50.000;9.064;2023-04-24T03:54:00;99167.31;;;12.05
73734;BMP280;62039;50.000;9.064;2023-04-24T03:56:27;99173.75;;;12.03
73734;BMP280;62039;50.000;9.064;2023-04-24T03:58:57;99156.22;;;11.97
73734;BMP280;62039;50.000;9.064;2023-04-24T04:01:24;99168.28;;;11.91
73734;BMP280;62039;50.000;9.064;2023-04-24T04:03:51;99167.63;;;11.83
73734;BMP280;62039;50.000;9.064;2023-04-24T04:06:18;99167.59;;;11.76
73734;BMP280;62039;50.000;9.064;2023-04-24T04:08:45;99165.78;;;11.70
73734;BMP280;62039;50.000;9.064;2023-04-24T04:11:11;99177.63;;;11.66
73734;BMP280;62039;50.000;9.064;2023-04-24T04:13:38;99187.84;;;11.61
73734;BMP280;62039;50.000;9.064;2023-04-24T04:16:08;99178.78;;;11.57
73734;BMP280;62039;50.000;9.064;2023-04-24T04:18:35;99185.03;;;11.56
73734;BMP280;62039;50.000;9.064;2023-04-24T04:21:02;99183.00;;;11.51
73734;BMP280;62039;50.000;9.064;2023-04-24T04:23:29;99190.41;;;11.48
73734;BMP280;62039;50.000;9.064;2023-04-24T04:25:56;99198.81;;;11.43
73734;BMP280;62039;50.000;9.064;2023-04-24T04:28:23;99205.84;;;11.43
73734;BMP280;62039;50.000;9.064;2023-04-24T04:30:50;99202.59;;;11.40
73734;BMP280;62039;50.000;9.064;2023-04-24T04:33:19;99207.81;;;11.40
73734;BMP280;62039;50.000;9.064;2023-04-24T04:35:46;99209.44;;;11.42
73734;BMP280;62039;50.000;9.064;2023-04-24T04:38:14;99213.06;;;11.40
73734;BMP280;62039;50.000;9.064;2023-04-24T04:40:41;99217.69;;;11.38
73734;BMP280;62039;50.000;9.064;2023-04-24T04:43:08;99226.53;;;11.37
73734;BMP280;62039;50.000;9.064;2023-04-24T04:45:34;99226.53;;;11.37
73734;BMP280;62039;50.000;9.064;2023-04-24T04:48:02;99230.13;;;11.36
73734;BMP280;62039;50.000;9.064;2023-04-24T04:50:31;99211.84;;;11.36
73734;BMP280;62039;50.000;9.064;2023-04-24T04:52:58;99217.25;;;11.35
73734;BMP280;62039;50.000;9.064;2023-04-24T04:55:25;99227.06;;;11.33
73734;BMP280;62039;50.000;9.064;2023-04-24T04:57:52;99230.09;;;11.30
73734;BMP280;62039;50.000;9.064;2023-04-24T05:00:19;99241.53;;;11.29
73734;BMP280;62039;50.000;9.064;2023-04-24T05:02:46;99239.91;;;11.28
73734;BMP280;62039;50.000;9.064;2023-04-24T05:05:13;99242.94;;;11.25
73734;BMP280;62039;50.000;9.064;2023-04-24T05:07:43;99244.09;;;11.22
73734;BMP280;62039;50.000;9.064;2023-04-24T05:10:10;99254.97;;;11.19
73734;BMP280;62039;50.000;9.064;2023-04-24T05:12:37;99251.72;;;11.17
73734;BMP280;62039;50.000;9.064;2023-04-24T05:15:05;99251.09;;;11.15
73734;BMP280;62039;50.000;9.064;2023-04-24T05:17:32;99258.50;;;11.12
73734;BMP280;62039;50.000;9.064;2023-04-24T05:19:59;99260.69;;;11.08
73734;BMP280;62039;50.000;9.064;2023-04-24T05:22:26;99255.63;;;11.07
73734;BMP280;62039;50.000;9.064;2023-04-24T05:24:55;99263.06;;;11.03
73734;BMP280;62039;50.000;9.064;2023-04-24T05:27:22;99262.44;;;11.01
73734;BMP280;62039;50.000;9.064;2023-04-24T05:29:49;99267.06;;;10.99
73734;BMP280;62039;50.000;9.064;2023-04-24T05:32:16;99275.63;;;10.93
73734;BMP280;62039;50.000;9.064;2023-04-24T05:34:43;99284.84;;;10.89
73734;BMP280;62039;50.000;9.064;2023-04-24T05:37:10;99279.97;;;10.86
73734;BMP280;62039;50.000;9.064;2023-04-24T05:39:37;99268.94;;;10.84
73734;BMP280;62039;50.000;9.064;2023-04-24T05:42:06;99290.41;;;10.86
73734;BMP280;62039;50.000;9.064;2023-04-24T05:44:33;99282.22;;;10.89
73734;BMP280;62039;50.000;9.064;2023-04-24T05:47:00;99290.06;;;10.89
73734;BMP280;62039;50.000;9.064;2023-04-24T05:49:27;99303.75;;;10.91
73734;BMP280;62039;50.000;9.064;2023-04-24T05:51:54;99298.53;;;10.91
73734;BMP280;62039;50.000;9.064;2023-04-24T05:54:21;99305.38;;;10.92
73734;BMP280;62039;50.000;9.064;2023-04-24T05:56:49;99315.44;;;10.95
73734;BMP280;62039;50.000;9.064;2023-04-24T05:59:18;99311.47;;;10.99
73734;BMP280;62039;50.000;9.064;2023-04-24T06:01:45;99321.19;;;11.05
73734;BMP280;62039;50.000;9.064;2023-04-24T06:04:12;99316.19;;;11.10
73734;BMP280;62039;50.000;9.064;2023-04-24T06:06:40;99306.78;;;11.16
73734;BMP280;62039;50.000;9.064;2023-04-24T06:09:07;99303.22;;;11.23
73734;BMP280;62039;50.000;9.064;2023-04-24T06:11:34;99313.56;;;11.31
73734;BMP280;62039;50.000;9.064;2023-04-24T06:14:01;99313.44;;;11.39
73734;BMP280;62039;50.000;9.064;2023-04-24T06:16:30;99316.72;;;11.48
73734;BMP280;62039;50.000;9.064;2023-04-24T06:18:57;99319.78;;;11.52
73734;BMP280;62039;50.000;9.064;2023-04-24T06:21:24;99328.03;;;11.55
73734;BMP280;62039;50.000;9.064;2023-04-24T06:23:51;99326.06;;;11.57
73734;BMP280;62039;50.000;9.064;2023-04-24T06:26:18;99321.63;;;11.58
73734;BMP280;62039;50.000;9.064;2023-04-24T06:28:45;99315.41;;;11.59
73734;BMP280;62039;50.000;9.064;2023-04-24T06:31:12;99307.16;;;11.62
73734;BMP280;62039;50.000;9.064;2023-04-24T06:33:41;99309.00;;;11.68
73734;BMP280;62039;50.000;9.064;2023-04-24T06:36:08;99321.53;;;11.72
73734;BMP280;62039;50.000;9.064;2023-04-24T06:38:35;99318.72;;;11.74
73734;BMP280;62039;50.000;9.064;2023-04-24T06:41:02;99325.19;;;11.78
73734;BMP280;62039;50.000;9.064;2023-04-24T06:43:29;99329.66;;;11.84
73734;BMP280;62039;50.000;9.064;2023-04-24T06:45:57;99327.88;;;11.91
73734;BMP280;62039;50.000;9.064;2023-04-24T06:48:24;99335.59;;;11.99
73734;BMP280;62039;50.000;9.064;2023-04-24T06:50:53;99325.34;;;12.04
73734;BMP280;62039;50.000;9.064;2023-04-24T06:53:20;99321.13;;;12.10
73734;BMP280;62039;50.000;9.064;2023-04-24T06:55:47;99332.44;;;12.17
73734;BMP280;62039;50.000;9.064;2023-04-24T06:58:14;99342.97;;;12.24
73734;BMP280;62039;50.000;9.064;2023-04-24T07:00:41;99341.56;;;12.28
73734;BMP280;62039;50.000;9.064;2023-04-24T07:03:08;99341.00;;;12.32
73734;BMP280;62039;50.000;9.064;2023-04-24T07:05:35;99349.09;;;12.37
73734;BMP280;62039;50.000;9.064;2023-04-24T07:08:05;99349.09;;;12.37
73734;BMP280;62039;50.000;9.064;2023-04-24T07:10:32;99346.28;;;12.39
73734;BMP280;62039;50.000;9.064;2023-04-24T07:12:59;99353.94;;;12.40
73734;BMP280;62039;50.000;9.064;2023-04-24T07:15:26;99340.84;;;12.40
73734;BMP280;62039;50.000;9.064;2023-04-24T07:17:52;99352.34;;;12.39
73734;BMP280;62039;50.000;9.064;2023-04-24T07:20:20;99349.91;;;12.38
73734;BMP280;62039;50.000;9.064;2023-04-24T07:22:47;99343.84;;;12.37
73734;BMP280;62039;50.000;9.064;2023-04-24T07:25:16;99358.75;;;12.37
73734;BMP280;62039;50.000;9.064;2023-04-24T07:27:43;99364.19;;;12.35
73734;BMP280;62039;50.000;9.064;2023-04-24T07:30:11;99356.31;;;12.35
73734;BMP280;62039;50.000;9.064;2023-04-24T07:32:38;99348.28;;;12.37
73734;BMP280;62039;50.000;9.064;2023-04-24T07:35:06;99351.13;;;12.42
73734;BMP280;62039;50.000;9.064;2023-04-24T07:37:33;99345.09;;;12.48
73734;BMP280;62039;50.000;9.064;2023-04-24T07:40:00;99351.56;;;12.52
73734;BMP280;62039;50.000;9.064;2023-04-24T07:42:29;99348.34;;;12.56
73734;BMP280;62039;50.000;9.064;2023-04-24T07:44:56;99370.75;;;12.59
73734;BMP280;62039;50.000;9.064;2023-04-24T07:47:23;99359.66;;;12.57
73734;BMP280;62039;50.000;9.064;2023-04-24T07:49:50;99354.81;;;12.54
73734;BMP280;62039;50.000;9.064;2023-04-24T07:52:17;99354.81;;;12.54
73734;BMP280;62039;50.000;9.064;2023-04-24T07:54:44;99354.00;;;12.53
73734;BMP280;62039;50.000;9.064;2023-04-24T07:57:11;99354.38;;;12.50
73734;BMP280;62039;50.000;9.064;2023-04-24T07:59:41;99364.06;;;12.50
73734;BMP280;62039;50.000;9.064;2023-04-24T08:02:08;99369.28;;;12.50
73734;BMP280;62039;50.000;9.064;2023-04-24T08:04:35;99363.25;;;12.56
73734;BMP280;62039;50.000;9.064;2023-04-24T08:07:02;99369.34;;;12.63
73734;BMP280;62039;50.000;9.064;2023-04-24T08:09:29;99357.06;;;12.64
73734;BMP280;62039;50.000;9.064;2023-04-24T08:11:56;99351.00;;;12.63
73734;BMP280;62039;50.000;9.064;2023-04-24T08:14:23;99352.81;;;12.63
73734;BMP280;62039;50.000;9.064;2023-04-24T08:16:54;99361.09;;;12.66
73734;BMP280;62039;50.000;9.064;2023-04-24T08:19:21;99359.28;;;12.67
73734;BMP280;62039;50.000;9.064;2023-04-24T08:21:48;99366.56;;;12.71
73734;BMP280;62039;50.000;9.064;2023-04-24T08:24:15;99380.88;;;12.75
73734;BMP280;62039;50.000;9.064;2023-04-24T08:26:42;99367.56;;;12.77
73734;BMP280;62039;50.000;9.064;2023-04-24T08:29:09;99369.00;;;12.79
73734;BMP280;62039;50.000;9.064;2023-04-24T08:31:36;99391.59;;;12.87
73734;BMP280;62039;50.000;9.064;2023-04-24T08:34:06;99392.81;;;12.91
73734;BMP280;62039;50.000;9.064;2023-04-24T08:36:33;99385.16;;;12.96
73734;BMP280;62039;50.000;9.064;2023-04-24T08:39:12;99372.06;;;13.03
73734;BMP280;62039;50.000;9.064;2023-04-24T08:41:41;99390.84;;;13.06
73734;BMP280;62039;50.000;9.064;2023-04-24T08:44:08;99394.66;;;13.04
73734;BMP280;62039;50.000;9.064;2023-04-24T08:46:37;99399.69;;;12.99
73734;BMP280;62039;50.000;9.064;2023-04-24T08:49:06;99406.53;;;12.93
73734;BMP280;62039;50.000;9.064;2023-04-24T08:51:34;99398.66;;;12.86
73734;BMP280;62039;50.000;9.064;2023-04-24T08:54:04;99396.00;;;12.80
73734;BMP280;62039;50.000;9.064;2023-04-24T08:56:33;99403.88;;;12.80
73734;BMP280;62039;50.000;9.064;2023-04-24T08:59:00;99403.28;;;12.84
73734;BMP280;62039;50.000;9.064;2023-04-24T09:01:28;99398.06;;;12.91
73734;BMP280;62039;50.000;9.064;2023-04-24T09:03:56;99395.63;;;12.96
73734;BMP280;62039;50.000;9.064;2023-04-24T09:06:26;99395.66;;;13.03
73734;BMP280;62039;50.000;9.064;2023-04-24T09:08:54;99399.09;;;13.10
73734;BMP280;62039;50.000;9.064;2023-04-24T09:11:21;99415.84;;;13.15
73734;BMP280;62039;50.000;9.064;2023-04-24T09:13:48;99402.59;;;13.17
73734;BMP280;62039;50.000;9.064;2023-04-24T09:16:15;99403.78;;;13.14
73734;BMP280;62039;50.000;9.064;2023-04-24T09:18:42;99414.03;;;13.09
73734;BMP280;62039;50.000;9.064;2023-04-24T09:21:09;99409.38;;;13.05
73734;BMP280;62039;50.000;9.064;2023-04-24T09:23:39;99421.28;;;13.01
73734;BMP280;62039;50.000;9.064;2023-04-24T09:26:06;99426.69;;;12.92
73734;BMP280;62039;50.000;9.064;2023-04-24T09:28:37;99427.47;;;12.86
73734;BMP280;62039;50.000;9.064;2023-04-24T09:31:06;99422.00;;;12.81
73734;BMP280;62039;50.000;9.064;2023-04-24T09:33:34;99432.25;;;12.76
73734;BMP280;62039;50.000;9.064;2023-04-24T09:36:01;99437.47;;;12.70
73734;BMP280;62039;50.000;9.064;2023-04-24T09:38:32;99441.06;;;12.62
73734;BMP280;62039;50.000;9.064;2023-04-24T09:41:05;99434.59;;;12.51
73734;BMP280;62039;50.000;9.064;2023-04-24T09:43:32;99434.91;;;12.42
73734;BMP280;62039;50.000;9.064;2023-04-24T09:46:05;99436.69;;;12.35
73734;BMP280;62039;50.000;9.064;2023-04-24T09:48:34;99441.66;;;12.30
73734;BMP280;62039;50.000;9.064;2023-04-24T09:51:03;99434.59;;;12.24
73734;BMP280;62039;50.000;9.064;2023-04-24T09:53:30;99438.78;;;12.18
73734;BMP280;62039;50.000;9.064;2023-04-24T09:56:06;99443.59;;;12.14
73734;BMP280;62039;50.000;9.064;2023-04-24T09:58:34;99436.75;;;12.13
73734;BMP280;62039;50.000;9.064;2023-04-24T10:01:02;99446.78;;;12.10
73734;BMP280;62039;50.000;9.064;2023-04-24T10:03:30;99445.16;;;12.09
73734;BMP280;62039;50.000;9.064;2023-04-24T10:05:58;99462.88;;;12.07
73734;BMP280;62039;50.000;9.064;2023-04-24T10:08:26;99454.97;;;12.00
73734;BMP280;62039;50.000;9.064;2023-04-24T10:10:59;99461.97;;;11.93
73734;BMP280;62039;50.000;9.064;2023-04-24T10:13:30;99465.59;;;11.92
73734;BMP280;62039;50.000;9.064;2023-04-24T10:15:58;99476.06;;;11.92
73734;BMP280;62039;50.000;9.064;2023-04-24T10:18:27;99474.44;;;11.91
73734;BMP280;62039;50.000;9.064;2023-04-24T10:20:54;99470.00;;;11.92
73734;BMP280;62039;50.000;9.064;2023-04-24T10:23:22;99488.50;;;11.90
73734;BMP280;62039;50.000;9.064;2023-04-24T10:25:50;99480.84;;;11.89
73734;BMP280;62039;50.000;9.064;2023-04-24T10:28:18;99486.25;;;11.87
73734;BMP280;62039;50.000;9.064;2023-04-24T10:30:49;99476.59;;;11.88
73734;BMP280;62039;50.000;9.064;2023-04-24T10:33:17;99490.88;;;11.85
73734;BMP280;62039;50.000;9.064;2023-04-24T10:35:47;99495.50;;;11.83
73734;BMP280;62039;50.000;9.064;2023-04-24T10:38:18;99505.13;;;11.83
73734;BMP280;62039;50.000;9.064;2023-04-24T10:40:45;99494.84;;;11.81
73734;BMP280;62039;50.000;9.064;2023-04-24T10:43:16;99502.72;;;11.81
73734;BMP280;62039;50.000;9.064;2023-04-24T10:46:00;99510.56;;;11.81
73734;BMP280;62039;50.000;9.064;2023-04-24T10:48:27;99505.97;;;11.83
73734;BMP280;62039;50.000;9.064;2023-04-24T10:50:54;99500.97;;;11.88
73734;BMP280;62039;50.000;9.064;2023-04-24T10:53:23;99510.66;;;11.94
73734;BMP280;62039;50.000;9.064;2023-04-24T10:55:51;99520.78;;;11.97
73734;BMP280;62039;50.000;9.064;2023-04-24T10:58:22;99518.53;;;11.94
73734;BMP280;62039;50.000;9.064;2023-04-24T11:00:59;99515.66;;;11.89
73734;BMP280;62039;50.000;9.064;2023-04-24T11:03:28;99535.38;;;11.85
73734;BMP280;62039;50.000;9.064;2023-04-24T11:05:58;99523.63;;;11.81
73734;BMP280;62039;50.000;9.064;2023-04-24T11:08:30;99530.69;;;11.81
73734;BMP280;62039;50.000;9.064;2023-04-24T11:11:02;99521.03;;;11.81
73734;BMP280;62039;50.000;9.064;2023-04-24T11:14:01;99536.94;;;11.80
73734;BMP280;62039;50.000;9.064;2023-04-24T11:16:32;99519.97;;;11.75
73734;BMP280;62039;50.000;9.064;2023-04-24T11:19:05;99518.72;;;11.71
73734;BMP280;62039;50.000;9.064;2023-04-24T11:21:33;99521.72;;;11.68
73734;BMP280;62039;50.000;9.064;2023-04-24T11:24:27;99533.72;;;11.63
73734;BMP280;62039;50.000;9.064;2023-04-24T11:26:55;99545.75;;;11.57
73734;BMP280;62039;50.000;9.064;2023-04-24T11:29:22;99555.16;;;11.52
73734;BMP280;62039;50.000;9.064;2023-04-24T11:31:54;99559.75;;;11.50
73734;BMP280;62039;50.000;9.064;2023-04-24T11:34:21;99559.09;;;11.48
73734;BMP280;62039;50.000;9.064;2023-04-24T11:36:48;99562.19;;;11.51
73734;BMP280;62039;50.000;9.064;2023-04-24T11:39:15;99564.25;;;11.56
73734;BMP280;62039;50.000;9.064;2023-04-24T11:41:42;99562.25;;;11.58
73734;BMP280;62039;50.000;9.064;2023-04-24T11:44:09;99565.94;;;11.63
73734;BMP280;62039;50.000;9.064;2023-04-24T11:46:36;99582.88;;;11.67
73734;BMP280;62039;50.000;9.064;2023-04-24T11:49:06;99566.00;;;11.70
73734;BMP280;62039;50.000;9.064;2023-04-24T11:51:34;99578.28;;;11.69
73734;BMP280;62039;50.000;9.064;2023-04-24T11:54:16;99583.06;;;11.66
73734;BMP280;62039;50.000;9.064;2023-04-24T11:56:44;99577.56;;;11.61
73734;BMP280;62039;50.000;9.064;2023-04-24T11:59:12;99583.53;;;11.55
73734;BMP280;62039;50.000;9.064;2023-04-24T12:01:43;99591.13;;;11.50
73734;BMP280;62039;50.000;9.064;2023-04-24T12:04:13;99597.06;;;11.44
73734;BMP280;62039;50.000;9.064;2023-04-24T12:06:58;99584.72;;;11.37
73734;BMP280;62039;50.000;9.064;2023-04-24T12:09:25;99597.81;;;11.37
73734;BMP280;62039;50.000;9.064;2023-04-24T12:11:53;99587.97;;;11.39
73734;BMP280;62039;50.000;9.064;2023-04-24T12:14:20;99577.78;;;11.45
73734;BMP280;62039;50.000;9.064;2023-04-24T12:16:47;99585.91;;;11.50
73734;BMP280;62039;50.000;9.064;2023-04-24T12:19:20;99586.16;;;11.55
73734;BMP280;62039;50.000;9.064;2023-04-24T12:21:59;99591.03;;;11.58
73734;BMP280;62039;50.000;9.064;2023-04-24T12:24:26;99595.88;;;11.61
73734;BMP280;62039;50.000;9.064;2023-04-24T12:26:53;99593.25;;;11.61
73734;BMP280;62039;50.000;9.064;2023-04-24T12:29:20;99586.97;;;11.55
73734;BMP280;62039;50.000;9.064;2023-04-24T12:31:48;99582.28;;;11.51
73734;BMP280;62039;50.000;9.064;2023-04-24T12:34:22;99579.41;;;11.46
73734;BMP280;62039;50.000;9.064;2023-04-24T12:36:49;99581.72;;;11.40
73734;BMP280;62039;50.000;9.064;2023-04-24T12:39:16;99577.88;;;11.36
73734;BMP280;62039;50.000;9.064;2023-04-24T12:42:04;99573.00;;;11.33
73734;BMP280;62039;50.000;9.064;2023-04-24T12:44:31;99572.00;;;11.34
73734;BMP280;62039;50.000;9.064;2023-04-24T12:46:58;99565.59;;;11.37
73734;BMP280;62039;50.000;9.064;2023-04-24T12:49:30;99569.28;;;11.43
73734;BMP280;62039;50.000;9.064;2023-04-24T12:51:57;99562.38;;;11.50
73734;BMP280;62039;50.000;9.064;2023-04-24T12:54:24;99555.22;;;11.58
73734;BMP280;62039;50.000;9.064;2023-04-24T12:56:51;99579.09;;;11.70
73734;BMP280;62039;50.000;9.064;2023-04-24T12:59:18;99578.16;;;11.77
73734;BMP280;62039;50.000;9.064;2023-04-24T13:01:45;99578.22;;;11.84
73734;BMP280;62039;50.000;9.064;2023-04-24T13:04:15;99576.09;;;11.94
73734;BMP280;62039;50.000;9.064;2023-04-24T13:06:44;99593.31;;;12.03
73734;BMP280;62039;50.000;9.064;2023-04-24T13:09:11;99602.59;;;12.06
73734;BMP280;62039;50.000;9.064;2023-04-24T13:11:38;99602.41;;;12.07
73734;BMP280;62039;50.000;9.064;2023-04-24T13:14:05;99598.19;;;12.06
73734;BMP280;62039;50.000;9.064;2023-04-24T13:16:32;99598.19;;;12.06
73734;BMP280;62039;50.000;9.064;2023-04-24T13:18:59;99600.16;;;12.04
73734;BMP280;62039;50.000;9.064;2023-04-24T13:21:26;99592.69;;;12.01
73734;BMP280;62039;50.000;9.064;2023-04-24T13:23:56;99592.88;;;12.00
73734;BMP280;62039;50.000;9.064;2023-04-24T13:26:23;99598.66;;;11.95
73734;BMP280;62039;50.000;9.064;2023-04-24T13:28:50;99597.44;;;11.91
73734;BMP280;62039;50.000;9.064;2023-04-24T13:31:17;99592.75;;;11.87
73734;BMP280;62039;50.000;9.064;2023-04-24T13:33:43;99597.72;;;11.82
73734;BMP280;62039;50.000;9.064;2023-04-24T13:36:11;99597.66;;;11.75
73734;BMP280;62039;50.000;9.064;2023-04-24T13:38:38;99587.66;;;11.64
73734;BMP280;62039;50.000;9.064;2023-04-24T13:41:07;99584.16;;;11.57
73734;BMP280;62039;50.000;9.064;2023-04-24T13:43:35;99593.41;;;11.53
73734;BMP280;62039;50.000;9.064;2023-04-24T13:46:02;99588.50;;;11.50
73734;BMP280;62039;50.000;9.064;2023-04-24T13:48:29;99591.94;;;11.50
73734;BMP280;62039;50.000;9.064;2023-04-24T13:50:56;99591.56;;;11.53
73734;BMP280;62039;50.000;9.064;2023-04-24T13:53:23;99588.41;;;11.58
73734;BMP280;62039;50.000;9.064;2023-04-24T13:55:50;99587.03;;;11.62
73734;BMP280;62039;50.000;9.064;2023-04-24T13:58:19;99587.75;;;11.70
73734;BMP280;62039;50.000;9.064;2023-04-24T14:00:46;99581.41;;;11.80
73734;BMP280;62039;50.000;9.064;2023-04-24T14:03:13;99576.66;;;11.90
73734;BMP280;62039;50.000;9.064;2023-04-24T14:05:40;99579.00;;;11.99
73734;BMP280;62039;50.000;9.064;2023-04-24T14:08:07;99576.03;;;12.09
73734;BMP280;62039;50.000;9.064;2023-04-24T14:10:34;99566.44;;;12.16
73734;BMP280;62039;50.000;9.064;2023-04-24T14:13:01;99567.31;;;12.23